Aérodrome :
LOGIN :

S'inscrire | Disclaimer

   EN    FR    IT 

 










Légende :    VFR   VFR Marginal   IFR   IFR Intensif   IFR Très Intensif
Visi : 
Plafond : 
>= 8 km
>= 3000ft
5 à 8 km
1000 à 3000 ft
1500m à 5 km
500 à 1000 ft
800 à 1500m
200 à 500 ft
< 800m
< 200 ft
Symboles :   Orages  Brouillard  Fortes neiges  Fortes précipitations  Vent > 20 kt
SIGMETs :   Divers  Orages  Givrage  Turbulence  Onde Orograph.  Cendres Volcan.







- Altitude de l'aérodrome : 183 ft
- Code IATA : HAJ


EDDV - Hanover/Langenhagen Int.

DERNIER METAR :
  • 140950Z 28007KT 230V310 9999 SCT020 SCT026 21/16 Q1010 NOSIG

METARs EXPIRÉS :
  • 140920Z 26008KT 230V300 9999 SCT018 BKN025 20/16 Q1010 NOSIG
  • 140850Z 26009KT 230V290 9999 SCT014 BKN025 19/16 Q1010 NOSIG
  • 140820Z 25011KT 230V290 9000 -RA FEW017 BKN022 18/16 Q1009 NOSIG
  • 140750Z 25009KT 220V280 9999 FEW017 BKN021 18/15 Q1009 NOSIG
  • 140720Z 24008KT 200V270 9999 FEW016 BKN020 18/15 Q1009 NOSIG

TAF TAF EDDV
Valide du 14 à 06h jusqu'au 15 à 06h UTC


140500Z 1406/1506 22010KT 9999 SCT035
TEMPO 1409/1418 26015G25KT
PROB30
TEMPO 1412/1417 SHRA SCT012 BKN025CB
BECMG 1416/1418 28007KT
Pas de NOTAMs connus pour ce terrain.



MET'MAP, la Météo Aéronautique d'un coup d'oeil ! - Copyright ORBIFLY Décembre 2007 - Disclaimer

ORBIFLY MET'MAP TEAM :

Programmation & Développement : Alexandra Zaïnal
Conception & Développement : Baudouin d'Aumeries
Co-Programmation & Développement : Marc-Olivier Méhu
Soutien technique & logistique : Manuel Goepfert

Contact : metmap@orbifly.com




SOURCES & CREDITS :

   NOAA